Time;durP1;ratioP1;P1;durP2;ratioP2;P2;SDS_P1;SDS_P2;PMS_P1;PMS_P2;Temp;Humidity;BMP_temperature;BMP_pressure;BME280_temperature;BME280_humidity;BME280_pressure;Samples;Min_cycle;Max_cycle;Signal;HPM_P1;HPM_P2
2023/11/06 00:02:08;;;;;;;4.68;1.92;;;;;;;15.97;94.55;99615.59;5072063;28;20033;-67
2023/11/06 00:04:35;;;;;;;4.20;2.35;;;;;;;15.90;95.13;99633.81;5072554;28;20024;-68
2023/11/06 00:07:00;;;;;;;3.15;1.85;;;;;;;15.48;95.51;99569.50;5072392;28;20119;-68
2023/11/06 00:09:26;;;;;;;2.75;1.88;;;;;;;15.75;96.07;99638.09;5072281;28;20103;-68
2023/11/06 00:11:51;;;;;;;4.03;1.90;;;;;;;15.69;96.18;99641.53;5072057;28;20036;-71
2023/11/06 00:14:17;;;;;;;4.28;1.90;;;;;;;15.55;96.54;99624.16;5072593;28;20054;-68
2023/11/06 00:16:43;;;;;;;4.30;1.60;;;;;;;15.59;96.86;99649.31;5072023;28;20043;-69
2023/11/06 00:19:08;;;;;;;3.85;1.80;;;;;;;15.39;97.07;99629.31;5072313;28;20376;-67
2023/11/06 00:21:35;;;;;;;3.25;1.73;;;;;;;15.04;97.26;99568.50;5071694;28;20041;-69
2023/11/06 00:24:01;;;;;;;4.13;1.63;;;;;;;15.25;96.90;99608.44;5072340;28;20532;-69
2023/11/06 00:26:26;;;;;;;2.08;1.38;;;;;;;15.04;97.02;99572.81;5071864;28;20024;-68
2023/11/06 00:28:53;;;;;;;3.60;1.60;;;;;;;15.42;97.27;99644.94;5072054;28;20052;-68
2023/11/06 00:31:19;;;;;;;2.30;1.40;;;;;;;14.37;96.83;99476.34;5071978;28;20024;-69
2023/11/06 00:33:44;;;;;;;3.42;1.60;;;;;;;15.35;96.99;99644.03;5071371;28;20093;-68
2023/11/06 00:36:17;;;;;;;2.33;1.30;;;;;;;15.32;97.24;99661.34;5072430;28;20043;-70
2023/11/06 00:38:43;;;;;;;2.15;1.10;;;;;;;15.36;97.13;99666.59;5072076;28;20493;-69
2023/11/06 00:44:30;;;;;;;3.38;1.30;;;;;;;15.25;96.98;99673.44;5128379;22;20060;-68
2023/11/06 00:46:56;;;;;;;4.53;1.20;;;;;;;15.28;97.05;99681.28;5053127;28;20029;-68
2023/11/06 00:49:21;;;;;;;1.27;1.08;;;;;;;14.79;97.47;99598.72;5051335;28;20537;-68
2023/11/06 00:51:47;;;;;;;1.75;1.10;;;;;;;15.25;97.28;99681.25;5052420;28;20051;-68
2023/11/06 00:54:16;;;;;;;1.63;1.05;;;;;;;15.16;97.72;99684.66;5051778;28;20031;-69
2023/11/06 00:56:41;;;;;;;5.47;1.10;;;;;;;15.04;97.75;99690.69;5052614;28;20031;-69
2023/11/06 00:59:07;;;;;;;1.73;1.00;;;;;;;15.09;97.12;99715.81;5052216;28;20025;-69
2023/11/06 01:01:32;;;;;;;2.13;1.25;;;;;;;14.94;97.81;99712.28;5052086;28;20033;-69
2023/11/06 01:03:58;;;;;;;1.58;0.93;;;;;;;14.94;98.03;99727.00;5052075;28;20055;-68
2023/11/06 01:06:24;;;;;;;2.67;0.90;;;;;;;14.90;99.11;99718.28;5052084;28;20025;-68
2023/11/06 01:08:50;;;;;;;0.82;0.82;;;;;;;14.91;98.68;99727.84;5051392;28;20025;-69
2023/11/06 01:11:16;;;;;;;3.40;1.08;;;;;;;14.86;98.77;99748.59;5051750;28;20043;-68
2023/11/06 01:13:42;;;;;;;1.02;0.90;;;;;;;14.87;99.31;99749.47;5052097;28;20032;-68
2023/11/06 01:16:07;;;;;;;1.15;0.80;;;;;;;14.59;99.56;99723.22;5051971;28;20024;-66
2023/11/06 01:18:33;;;;;;;0.60;0.60;;;;;;;14.78;100.00;99762.38;5051610;28;20056;-69
2023/11/06 01:20:58;;;;;;;1.90;0.80;;;;;;;14.90;100.00;99787.63;5051841;28;20070;-69
2023/11/06 01:23:24;;;;;;;1.02;0.70;;;;;;;14.83;100.00;99794.50;5051277;28;20448;-69
2023/11/06 01:25:50;;;;;;;3.50;0.82;;;;;;;14.90;100.00;99801.47;5051280;28;20017;-69
2023/11/06 01:28:16;;;;;;;2.80;0.80;;;;;;;14.92;100.00;99807.56;5051724;28;20498;-68
2023/11/06 01:30:41;;;;;;;1.73;0.73;;;;;;;15.04;100.00;99817.16;5051727;28;20031;-69
2023/11/06 01:33:06;;;;;;;3.92;0.73;;;;;;;15.08;100.00;99813.75;5051879;28;20019;-69
2023/11/06 01:35:32;;;;;;;0.65;0.63;;;;;;;15.15;100.00;99814.66;5051579;28;20148;-69
2023/11/06 01:37:58;;;;;;;1.25;0.75;;;;;;;15.16;100.00;99806.88;5051535;28;20021;-68
2023/11/06 01:40:24;;;;;;;1.13;0.90;;;;;;;14.83;100.00;99750.31;5051637;28;20772;-68
2023/11/06 01:42:52;;;;;;;1.48;1.00;;;;;;;15.15;100.00;99804.25;5051166;28;20144;-69
2023/11/06 01:45:18;;;;;;;0.63;0.63;;;;;;;15.20;100.00;99792.16;5051252;28;20013;-68
2023/11/06 01:47:44;;;;;;;1.05;0.70;;;;;;;15.02;100.00;99785.97;5051061;28;20561;-69
2023/11/06 01:50:12;;;;;;;1.17;0.80;;;;;;;15.00;100.00;99794.63;5051380;28;20017;-69
2023/11/06 01:52:37;;;;;;;1.38;0.88;;;;;;;14.65;100.00;99748.41;5051428;28;20039;-69
2023/11/06 01:55:04;;;;;;;2.47;0.80;;;;;;;14.34;100.00;99722.13;5050811;28;20017;-68
2023/11/06 01:57:30;;;;;;;1.60;0.93;;;;;;;14.37;100.00;99743.81;5050806;28;20391;-68
2023/11/06 01:59:56;;;;;;;1.80;1.10;;;;;;;14.41;100.00;99773.28;5050760;28;20017;-70
2023/11/06 02:02:27;;;;;;;3.53;1.20;;;;;;;14.52;100.00;99794.19;5049701;28;20031;-69
2023/11/06 02:04:52;;;;;;;4.05;1.30;;;;;;;14.71;100.00;99811.69;5050435;28;20017;-69
2023/11/06 02:07:18;;;;;;;1.48;1.00;;;;;;;14.79;100.00;99809.19;5051198;28;20091;-69
2023/11/06 02:09:44;;;;;;;2.15;0.70;;;;;;;14.82;100.00;99793.59;5050838;28;20025;-69
2023/11/06 02:12:10;;;;;;;4.50;1.05;;;;;;;15.02;100.00;99803.31;5051185;28;20139;-69
2023/11/06 02:14:51;;;;;;;4.47;0.98;;;;;;;15.07;100.00;99800.75;5051070;28;20452;-70
2023/11/06 02:17:17;;;;;;;0.90;0.70;;;;;;;15.09;100.00;99805.09;5050176;28;20033;-68
2023/11/06 02:19:42;;;;;;;1.42;0.82;;;;;;;15.20;100.00;99806.06;5049577;28;20110;-68
2023/11/06 02:22:11;;;;;;;0.47;0.35;;;;;;;15.15;100.00;99799.06;5048764;28;20029;-69
2023/11/06 02:24:38;;;;;;;0.93;0.50;;;;;;;15.22;100.00;99813.84;5050336;28;20509;-68
2023/11/06 02:27:03;;;;;;;1.42;0.60;;;;;;;15.09;100.00;99792.09;5049902;28;20017;-69
2023/11/06 02:29:29;;;;;;;7.50;0.80;;;;;;;15.17;100.00;99818.16;5050457;28;20345;-69
2023/11/06 02:31:54;;;;;;;10.90;0.90;;;;;;;15.15;100.00;99812.94;5050476;28;20048;-69
2023/11/06 02:34:22;;;;;;;3.70;0.82;;;;;;;15.07;100.00;99809.41;5049745;28;20086;-69
2023/11/06 02:36:48;;;;;;;2.88;0.75;;;;;;;14.94;100.00;99786.78;5050113;28;20025;-71
2023/11/06 02:39:13;;;;;;;2.60;0.60;;;;;;;14.80;100.00;99760.69;5049667;28;20475;-70
2023/11/06 02:41:39;;;;;;;1.35;0.60;;;;;;;15.00;100.00;99794.63;5050383;28;20032;-70
2023/11/06 02:44:05;;;;;;;0.60;0.60;;;;;;;15.06;100.00;99812.00;5050212;28;20049;-71
2023/11/06 02:46:30;;;;;;;1.02;0.50;;;;;;;14.51;100.00;99743.94;5050254;28;20078;-69
2023/11/06 02:48:56;;;;;;;1.27;0.63;;;;;;;14.57;100.00;99813.28;5050213;28;20112;-68
2023/11/06 02:51:21;;;;;;;2.60;0.80;;;;;;;14.57;100.00;99824.53;5048804;28;20441;-70
2023/11/06 02:53:46;;;;;;;2.97;0.80;;;;;;;14.52;100.00;99813.22;5050261;28;20021;-70
2023/11/06 02:56:12;;;;;;;1.92;0.70;;;;;;;14.60;100.00;99834.06;5050315;28;20021;-69
2023/11/06 02:58:37;;;;;;;1.20;0.90;;;;;;;14.51;100.00;99823.59;5055386;28;20013;-69
2023/11/06 03:01:03;;;;;;;1.30;1.08;;;;;;;14.69;100.00;99834.22;5056273;28;20056;-69
2023/11/06 03:03:28;;;;;;;1.52;0.90;;;;;;;14.77;100.00;99833.41;5055242;28;20020;-71
2023/11/06 03:05:54;;;;;;;3.42;0.80;;;;;;;14.83;100.00;99836.06;5054035;28;20025;-71
2023/11/06 03:08:19;;;;;;;1.70;0.90;;;;;;;14.83;100.00;99825.69;5054594;28;20029;-70
2023/11/06 03:10:45;;;;;;;3.00;1.00;;;;;;;15.00;100.00;99850.09;5056081;28;20036;-69
2023/11/06 03:13:11;;;;;;;1.95;0.73;;;;;;;14.94;100.00;99846.53;5056056;28;20020;-69
2023/11/06 03:15:37;;;;;;;1.00;0.80;;;;;;;14.93;100.00;99865.59;5055856;28;20009;-70
2023/11/06 03:18:03;;;;;;;0.98;0.70;;;;;;;14.90;100.00;99857.78;5055797;28;20062;-69
2023/11/06 03:20:28;;;;;;;1.95;1.08;;;;;;;15.02;100.00;99870.91;5056242;28;20021;-69
2023/11/06 03:22:54;;;;;;;0.82;0.70;;;;;;;14.13;100.00;99734.06;5056477;28;20035;-69
2023/11/06 03:25:19;;;;;;;1.80;0.68;;;;;;;14.59;100.00;99821.94;5056333;28;20017;-69
2023/11/06 03:27:48;;;;;;;1.27;0.68;;;;;;;14.60;100.00;99890.34;5055846;28;20448;-69
2023/11/06 03:30:13;;;;;;;3.80;0.90;;;;;;;14.30;100.00;99907.31;5056530;28;20020;-70
2023/11/06 03:32:39;;;;;;;2.63;1.13;;;;;;;14.16;100.00;99888.97;5055538;28;20017;-69
2023/11/06 03:35:06;;;;;;;2.55;1.50;;;;;;;13.90;100.00;99822.03;5055852;28;20159;-72
2023/11/06 03:37:32;;;;;;;2.92;1.40;;;;;;;14.21;100.00;99857.00;5055907;28;20021;-69
2023/11/06 03:39:57;;;;;;;5.63;1.65;;;;;;;14.36;100.00;99879.69;5055858;28;20032;-69
2023/11/06 03:42:23;;;;;;;3.35;1.65;;;;;;;14.58;100.00;99898.13;5055689;28;20455;-69
2023/11/06 03:44:49;;;;;;;6.00;2.10;;;;;;;14.59;100.00;99899.84;5056598;28;20541;-69
2023/11/06 03:47:15;;;;;;;4.45;1.88;;;;;;;14.58;100.00;99903.34;5035975;28;20801;-70
2023/11/06 03:49:40;;;;;;;7.05;2.70;;;;;;;14.63;100.00;99914.66;5056265;28;20028;-69
2023/11/06 03:52:10;;;;;;;4.68;2.20;;;;;;;14.41;100.00;99884.94;5055677;28;20013;-68
2023/11/06 03:54:40;;;;;;;3.90;2.22;;;;;;;14.57;100.00;99928.41;5054412;28;20364;-69
2023/11/06 03:57:05;;;;;;;5.80;1.80;;;;;;;14.44;100.00;99928.25;5055503;28;20486;-71
2023/11/06 03:59:31;;;;;;;4.47;2.00;;;;;;;14.26;100.00;99916.78;5055733;28;20025;-69
2023/11/06 04:01:57;;;;;;;4.20;2.13;;;;;;;14.07;100.00;99916.53;5055613;28;20059;-69
2023/11/06 04:04:22;;;;;;;4.75;2.15;;;;;;;13.84;100.00;99921.38;5055640;28;20021;-68
2023/11/06 04:06:48;;;;;;;2.42;1.55;;;;;;;13.79;100.00;99930.84;5055881;28;20032;-68
2023/11/06 04:09:13;;;;;;;4.20;1.60;;;;;;;13.91;100.00;99948.31;5051852;28;20021;-70
2023/11/06 04:11:40;;;;;;;1.52;1.25;;;;;;;13.50;100.00;99933.00;5052670;28;20078;-68
2023/11/06 04:14:06;;;;;;;3.47;1.30;;;;;;;13.40;100.00;99940.59;5051256;28;20452;-69
2023/11/06 04:16:31;;;;;;;3.88;1.17;;;;;;;13.34;100.00;99947.38;5052448;28;20017;-68
2023/11/06 04:18:57;;;;;;;4.43;1.35;;;;;;;13.18;100.00;99943.63;5051863;28;20029;-68
2023/11/06 04:21:22;;;;;;;1.60;1.10;;;;;;;13.30;100.00;99959.41;5051618;28;20116;-69
2023/11/06 04:23:47;;;;;;;4.18;1.20;;;;;;;13.21;100.00;99959.25;5050155;28;20024;-69
2023/11/06 04:26:13;;;;;;;3.28;1.30;;;;;;;13.19;100.00;99979.94;5050708;28;20025;-69
2023/11/06 04:28:41;;;;;;;2.97;1.48;;;;;;;13.22;100.00;99966.16;5051260;28;20044;-69
2023/11/06 04:31:08;;;;;;;4.63;1.58;;;;;;;13.31;100.00;99957.69;5052365;28;20021;-75
2023/11/06 04:33:33;;;;;;;2.25;1.65;;;;;;;13.45;100.00;99953.66;5051521;28;20535;-70
2023/11/06 04:35:59;;;;;;;3.28;1.77;;;;;;;13.58;100.00;99958.19;5050361;28;20107;-72
2023/11/06 04:38:24;;;;;;;2.80;1.58;;;;;;;13.69;100.00;99966.13;5050038;28;20032;-68
2023/11/06 04:40:50;;;;;;;1.88;1.42;;;;;;;13.89;100.00;99978.56;5049496;28;20025;-68
2023/11/06 04:43:16;;;;;;;3.55;1.95;;;;;;;14.03;100.00;99979.66;5049533;28;20052;-70
2023/11/06 04:45:42;;;;;;;3.85;2.17;;;;;;;14.06;100.00;99982.28;5049758;28;20021;-68
2023/11/06 04:48:07;;;;;;;7.68;4.95;;;;;;;14.02;100.00;99970.13;5052137;28;20090;-70
2023/11/06 04:50:33;;;;;;;13.00;8.50;;;;;;;14.14;100.00;99990.16;5051853;28;20021;-73
2023/11/06 04:52:58;;;;;;;27.50;17.30;;;;;;;14.21;100.00;100004.13;5050679;28;20028;-71
2023/11/06 04:55:25;;;;;;;39.13;24.88;;;;;;;14.16;100.00;99992.81;5050606;28;20501;-69
2023/11/06 04:57:50;;;;;;;21.45;15.88;;;;;;;14.23;100.00;99999.81;5051214;28;20028;-68
2023/11/06 05:00:16;;;;;;;21.35;14.48;;;;;;;13.79;100.00;99917.84;5051700;28;20028;-69
2023/11/06 05:02:41;;;;;;;17.20;12.20;;;;;;;14.33;100.00;100003.41;5051472;28;20083;-69
2023/11/06 05:05:09;;;;;;;15.43;11.00;;;;;;;14.33;100.00;99996.53;5050330;28;20033;-68
2023/11/06 05:07:34;;;;;;;18.27;9.45;;;;;;;14.36;100.00;99999.16;5051636;28;20021;-69
2023/11/06 05:10:00;;;;;;;15.02;8.25;;;;;;;14.51;100.00;100029.66;5051679;28;20447;-68
2023/11/06 05:12:25;;;;;;;12.27;6.68;;;;;;;14.42;100.00;100037.31;5051229;28;20014;-72
2023/11/06 05:14:51;;;;;;;9.30;4.45;;;;;;;14.29;100.00;100051.84;5049996;28;20463;-69
2023/11/06 05:17:16;;;;;;;9.73;3.67;;;;;;;14.19;100.00;100043.06;5051406;28;20013;-68
2023/11/06 05:19:42;;;;;;;7.47;3.70;;;;;;;14.13;100.00;100045.56;5050894;28;20126;-68
2023/11/06 05:22:09;;;;;;;7.75;3.38;;;;;;;13.68;100.00;99977.38;5050937;28;20033;-72
2023/11/06 05:24:34;;;;;;;6.57;3.60;;;;;;;13.99;100.00;100047.06;5051761;28;20033;-70
2023/11/06 05:27:00;;;;;;;8.27;3.70;;;;;;;14.02;100.00;100068.75;5051207;28;20095;-69
2023/11/06 05:29:26;;;;;;;9.32;4.32;;;;;;;14.07;100.00;100054.09;5051296;28;20025;-69
2023/11/06 05:31:52;;;;;;;10.82;3.70;;;;;;;14.05;100.00;100054.94;5049858;28;20064;-70
2023/11/06 05:34:17;;;;;;;6.95;3.47;;;;;;;14.12;100.00;100069.78;5051405;28;20130;-73
2023/11/06 05:37:04;;;;;;;6.75;3.60;;;;;;;14.22;100.00;100070.78;5048279;28;20041;-70
2023/11/06 05:39:29;;;;;;;4.20;2.45;;;;;;;14.16;100.00;100074.16;5048295;28;20136;-70
2023/11/06 05:41:54;;;;;;;10.75;3.35;;;;;;;14.13;100.00;100084.50;5045084;28;20037;-67
2023/11/06 05:44:20;;;;;;;6.25;3.22;;;;;;;14.10;100.00;100078.38;5048417;28;20114;-69
2023/11/06 05:46:46;;;;;;;4.18;2.80;;;;;;;14.19;100.00;100076.81;5048645;28;20043;-69
2023/11/06 05:49:12;;;;;;;7.93;3.35;;;;;;;14.14;100.00;100074.97;5048926;28;20025;-67
2023/11/06 05:51:38;;;;;;;9.73;3.22;;;;;;;14.22;100.00;100092.41;5048662;28;20572;-72
2023/11/06 05:54:04;;;;;;;6.07;3.10;;;;;;;14.29;100.00;100098.56;5048696;28;20110;-70
2023/11/06 05:56:29;;;;;;;4.88;3.35;;;;;;;14.13;100.00;100073.22;5048516;28;20510;-70
2023/11/06 05:58:55;;;;;;;6.55;3.03;;;;;;;14.28;100.00;100112.44;5048709;28;20037;-69
2023/11/06 06:01:20;;;;;;;8.77;3.10;;;;;;;14.31;100.00;100122.00;5048652;28;20104;-69
2023/11/06 06:03:46;;;;;;;9.90;3.78;;;;;;;14.27;100.00;100115.88;5048627;28;20116;-67
2023/11/06 06:06:12;;;;;;;7.80;4.00;;;;;;;13.74;100.00;100044.03;5048995;28;20031;-69
2023/11/06 06:08:39;;;;;;;6.72;3.47;;;;;;;14.14;100.00;100114.78;5050042;28;20048;-69
2023/11/06 06:11:05;;;;;;;11.68;4.00;;;;;;;14.13;100.00;100130.34;5051106;28;20060;-73
2023/11/06 06:13:30;;;;;;;10.80;3.70;;;;;;;14.13;100.00;100128.63;5051203;28;20080;-69
2023/11/06 06:15:56;;;;;;;5.60;2.75;;;;;;;13.94;100.00;100095.41;5050931;28;20036;-68
2023/11/06 06:18:21;;;;;;;5.07;3.35;;;;;;;14.16;100.00;100122.63;5051124;28;20023;-70
2023/11/06 06:20:47;;;;;;;6.07;3.35;;;;;;;14.20;100.00;100125.25;5048515;28;20033;-69
2023/11/06 06:23:12;;;;;;;4.88;3.08;;;;;;;13.91;100.00;100054.72;5031047;28;20025;-70
2023/11/06 06:25:37;;;;;;;7.95;3.30;;;;;;;14.57;100.00;100130.19;5030963;28;20104;-69
2023/11/06 06:28:04;;;;;;;7.57;3.50;;;;;;;14.78;100.00;100144.34;5039594;28;20028;-68
2023/11/06 06:30:31;;;;;;;5.55;3.00;;;;;;;14.70;100.00;100141.66;5037508;28;20109;-69
2023/11/06 06:32:57;;;;;;;5.78;3.30;;;;;;;14.88;100.00;100143.66;5037249;28;20021;-73
2023/11/06 06:35:24;;;;;;;6.28;3.78;;;;;;;14.83;100.00;100150.53;5050371;28;20421;-68
2023/11/06 06:37:49;;;;;;;8.60;4.22;;;;;;;14.87;100.00;100152.31;5045668;28;20021;-69
2023/11/06 06:40:15;;;;;;;9.07;4.38;;;;;;;14.80;100.00;100122.75;5050583;28;20417;-69
2023/11/06 06:42:40;;;;;;;7.45;3.47;;;;;;;14.88;100.00;100136.72;5050032;28;21026;-69
2023/11/06 06:45:06;;;;;;;5.70;3.20;;;;;;;14.96;100.00;100144.63;5049351;28;20425;-71
2023/11/06 06:47:32;;;;;;;5.60;3.33;;;;;;;15.10;100.00;100154.34;5050419;28;20060;-69
2023/11/06 06:49:58;;;;;;;5.72;3.38;;;;;;;14.61;100.00;100074.81;5050143;28;20068;-72
2023/11/06 06:52:24;;;;;;;6.35;3.53;;;;;;;14.43;100.00;100027.78;5050297;28;20025;-69
2023/11/06 06:54:49;;;;;;;7.65;3.42;;;;;;;15.34;100.00;100152.06;5031050;28;20033;-71
2023/11/06 06:57:15;;;;;;;8.50;3.50;;;;;;;15.41;100.00;100153.00;5050489;28;20443;-69
2023/11/06 06:59:40;;;;;;;7.32;3.10;;;;;;;15.45;100.00;100151.31;5049044;28;20344;-70
2023/11/06 07:02:06;;;;;;;6.13;3.20;;;;;;;15.57;100.00;100151.44;5050367;28;20029;-69
2023/11/06 07:04:33;;;;;;;7.38;4.32;;;;;;;15.84;100.00;100163.06;5050378;28;20083;-69
2023/11/06 07:06:58;;;;;;;9.18;3.60;;;;;;;16.02;100.00;100172.78;5050112;28;20052;-70
2023/11/06 07:09:26;;;;;;;4.47;2.90;;;;;;;16.01;100.00;100182.34;5050377;28;20057;-69
2023/11/06 07:11:52;;;;;;;5.82;2.95;;;;;;;16.15;100.00;100177.25;5050355;28;20530;-69
2023/11/06 07:14:18;;;;;;;5.53;2.88;;;;;;;16.29;100.00;100181.72;5050435;28;20116;-73
2023/11/06 07:16:44;;;;;;;5.82;2.97;;;;;;;16.35;100.00;100197.41;5050205;28;20029;-69
2023/11/06 07:19:09;;;;;;;6.32;2.80;;;;;;;16.22;100.00;100178.16;5039688;28;20061;-69
2023/11/06 07:21:35;;;;;;;5.60;3.08;;;;;;;16.21;100.00;100219.84;5034916;28;20483;-69
2023/11/06 07:24:00;;;;;;;5.43;2.70;;;;;;;16.25;100.00;100198.16;5041414;28;20080;-69
2023/11/06 07:26:28;;;;;;;10.43;3.40;;;;;;;16.46;100.00;100200.09;5030379;28;20053;-70
2023/11/06 07:28:53;;;;;;;6.78;3.15;;;;;;;16.63;100.00;100214.13;5041515;28;20067;-70
2023/11/06 07:31:21;;;;;;;7.45;3.70;;;;;;;16.70;99.86;100216.78;5050144;28;20061;-70
2023/11/06 07:33:46;;;;;;;8.70;3.83;;;;;;;16.42;99.93;100154.03;5050143;28;20021;-69
2023/11/06 07:36:12;;;;;;;5.13;2.97;;;;;;;16.67;98.98;100228.06;5049840;28;20474;-69
2023/11/06 07:38:37;;;;;;;5.75;3.22;;;;;;;16.69;98.64;100204.63;5050046;28;20371;-69
2023/11/06 07:41:03;;;;;;;5.38;3.28;;;;;;;16.83;97.08;100231.66;5049901;28;20053;-69
2023/11/06 07:43:29;;;;;;;5.43;2.90;;;;;;;16.88;97.80;100232.56;5051735;28;20060;-69
2023/11/06 07:45:55;;;;;;;14.90;4.07;;;;;;;17.01;97.78;100235.28;5054096;28;20021;-69
2023/11/06 07:48:20;;;;;;;7.43;3.50;;;;;;;16.99;98.63;100224.84;5053948;28;20025;-69
2023/11/06 07:50:45;;;;;;;5.55;3.10;;;;;;;17.05;98.91;100216.22;5053911;28;20028;-69
2023/11/06 07:53:11;;;;;;;8.07;4.72;;;;;;;17.11;98.63;100229.28;5051347;28;20064;-70
2023/11/06 07:55:36;;;;;;;5.05;3.70;;;;;;;16.80;99.71;100209.06;5053814;28;20028;-69
2023/11/06 07:58:01;;;;;;;20.65;14.13;;;;;;;16.85;99.70;100183.03;5053446;28;20032;-68
2023/11/06 08:00:27;;;;;;;28.08;17.45;;;;;;;16.55;99.16;100157.59;5053611;28;20021;-70
2023/11/06 08:02:53;;;;;;;15.93;9.70;;;;;;;17.09;98.64;100223.19;5053601;28;20025;-70
2023/11/06 08:05:19;;;;;;;10.60;7.05;;;;;;;17.12;97.75;100217.97;5053642;28;20418;-71
2023/11/06 08:07:44;;;;;;;10.20;5.43;;;;;;;17.37;96.96;100221.63;5053333;28;20055;-71
2023/11/06 08:10:14;;;;;;;11.60;7.00;;;;;;;17.47;96.43;100238.19;5053246;28;20463;-70
2023/11/06 08:12:40;;;;;;;11.55;6.82;;;;;;;17.23;95.64;100166.72;5053350;28;20036;-69
2023/11/06 08:15:08;;;;;;;6.97;4.60;;;;;;;17.60;95.38;100226.06;5053303;28;20532;-71
2023/11/06 08:17:34;;;;;;;10.20;5.40;;;;;;;17.60;96.25;100234.75;5052891;28;20467;-69
2023/11/06 08:19:59;;;;;;;9.52;5.40;;;;;;;17.77;96.05;100241.81;5053099;28;20028;-76
2023/11/06 08:22:25;;;;;;;8.82;3.38;;;;;;;17.87;95.30;100232.22;5053026;28;20032;-70
2023/11/06 08:24:51;;;;;;;7.03;3.10;;;;;;;18.08;96.20;100242.78;5053019;28;20028;-69
2023/11/06 08:27:16;;;;;;;7.53;3.20;;;;;;;17.88;96.33;100173.91;5053065;28;20108;-69
2023/11/06 08:29:42;;;;;;;9.85;3.78;;;;;;;18.36;95.45;100228.91;5053100;28;20020;-69
2023/11/06 08:32:11;;;;;;;4.90;2.95;;;;;;;18.62;93.99;100247.22;5052973;28;20120;-73
2023/11/06 08:34:44;;;;;;;15.65;3.00;;;;;;;18.78;93.82;100255.94;5033948;28;20036;-70
2023/11/06 08:37:11;;;;;;;5.07;2.20;;;;;;;18.89;91.96;100253.28;5052962;28;20028;-68
2023/11/06 08:39:42;;;;;;;5.53;3.03;;;;;;;19.00;90.70;100248.09;5052800;28;20030;-69
2023/11/06 08:42:07;;;;;;;9.35;2.40;;;;;;;19.03;91.87;100237.66;5052875;28;20074;-73
2023/11/06 08:44:33;;;;;;;4.47;2.20;;;;;;;18.80;89.62;100209.72;5052595;28;20441;-68
2023/11/06 08:46:58;;;;;;;4.75;1.95;;;;;;;19.24;89.26;100255.91;5052665;28;20033;-69
2023/11/06 08:49:24;;;;;;;2.55;1.80;;;;;;;19.38;87.78;100255.00;5052700;28;20112;-70
2023/11/06 08:51:49;;;;;;;3.22;1.65;;;;;;;19.59;86.18;100250.56;5052738;28;20723;-69
2023/11/06 08:54:15;;;;;;;3.25;1.60;;;;;;;19.66;85.52;100247.91;5051954;28;20384;-69
2023/11/06 08:56:40;;;;;;;5.38;2.25;;;;;;;19.78;84.00;100257.47;5052434;28;20029;-69
2023/11/06 08:59:06;;;;;;;2.03;1.50;;;;;;;19.94;83.98;100254.81;5052598;28;20103;-75
2023/11/06 09:01:31;;;;;;;3.58;1.65;;;;;;;20.14;82.96;100252.09;5052370;28;20021;-68
2023/11/06 09:03:57;;;;;;;6.68;2.67;;;;;;;20.27;86.97;100253.75;5052316;28;20449;-69
2023/11/06 09:06:22;;;;;;;3.38;2.20;;;;;;;20.35;87.36;100257.19;5052193;28;20104;-67
2023/11/06 09:08:47;;;;;;;7.50;2.58;;;;;;;20.38;86.19;100263.31;5052328;28;20071;-69
2023/11/06 09:11:13;;;;;;;4.03;1.92;;;;;;;20.43;85.75;100264.16;5052312;28;20028;-69
2023/11/06 09:13:38;;;;;;;5.95;2.17;;;;;;;20.00;84.92;100176.16;5052566;28;20024;-68
2023/11/06 09:16:04;;;;;;;3.17;1.85;;;;;;;20.26;85.55;100190.84;5049787;28;20471;-69
2023/11/06 09:18:30;;;;;;;5.57;2.10;;;;;;;20.65;82.53;100257.00;5025751;28;20538;-72
2023/11/06 09:20:55;;;;;;;7.20;1.83;;;;;;;20.72;82.25;100261.31;5039378;28;20021;-68
2023/11/06 09:23:21;;;;;;;3.60;1.58;;;;;;;20.79;77.22;100268.25;5051018;28;20403;-69
2023/11/06 09:25:47;;;;;;;1.88;1.25;;;;;;;20.56;74.98;100249.19;5050214;28;20036;-70
2023/11/06 09:28:13;;;;;;;6.85;1.83;;;;;;;20.84;74.97;100255.09;5051275;28;20108;-68
2023/11/06 09:30:42;;;;;;;4.65;1.65;;;;;;;20.75;73.58;100260.41;5051068;28;20680;-69
2023/11/06 09:33:08;;;;;;;4.38;1.80;;;;;;;20.73;73.50;100247.31;5051183;28;20110;-70
2023/11/06 09:35:33;;;;;;;5.57;1.70;;;;;;;20.46;73.87;100170.59;5050920;28;20028;-68
2023/11/06 09:37:59;;;;;;;4.97;1.85;;;;;;;20.71;74.05;100186.16;5049857;28;20082;-68
2023/11/06 09:40:25;;;;;;;4.28;1.60;;;;;;;20.88;73.02;100250.72;5051326;28;20044;-69
2023/11/06 09:42:51;;;;;;;3.42;1.58;;;;;;;20.10;72.22;100140.28;5050894;28;20491;-69
2023/11/06 09:45:16;;;;;;;2.75;1.25;;;;;;;20.78;73.76;100234.16;5050990;28;20067;-69
2023/11/06 09:47:52;;;;;;;9.63;1.95;;;;;;;21.05;72.32;100256.66;5050838;28;20120;-72
2023/11/06 09:50:20;;;;;;;3.72;1.35;;;;;;;21.36;72.07;100251.09;5050459;28;20025;-69
2023/11/06 09:52:48;;;;;;;4.63;1.30;;;;;;;21.26;70.11;100242.44;5050835;28;20028;-69
2023/11/06 09:55:18;;;;;;;3.28;1.20;;;;;;;21.14;69.42;100243.44;5051134;28;20025;-68
2023/11/06 09:57:44;;;;;;;3.72;1.45;;;;;;;21.19;71.81;100235.53;5050876;28;20013;-67
2023/11/06 10:00:14;;;;;;;10.82;1.55;;;;;;;21.46;69.65;100238.75;5049640;28;20119;-70
2023/11/06 10:02:39;;;;;;;3.85;1.30;;;;;;;21.19;68.91;100161.16;5046589;28;20025;-69
2023/11/06 10:05:12;;;;;;;3.33;1.70;;;;;;;21.64;67.82;100216.66;5049349;28;20119;-73
2023/11/06 10:07:51;;;;;;;4.03;1.25;;;;;;;21.58;65.84;100233.38;5041625;28;20435;-69
2023/11/06 10:10:19;;;;;;;6.18;1.42;;;;;;;21.77;66.58;100227.84;5040285;28;20021;-71
2023/11/06 10:12:44;;;;;;;3.92;1.00;;;;;;;21.76;64.05;100219.13;5050074;28;20044;-69
2023/11/06 10:15:13;;;;;;;3.42;1.08;;;;;;;21.48;59.56;100169.53;5050366;28;20486;-69
2023/11/06 10:18:00;;;;;;;4.10;1.55;;;;;;;21.71;60.48;100205.19;5027598;28;20586;-70
2023/11/06 10:20:26;;;;;;;2.50;1.20;;;;;;;22.07;57.24;100223.94;5023072;28;20113;-69
2023/11/06 10:22:56;;;;;;;2.38;1.25;;;;;;;21.94;58.29;100203.97;5016630;28;20521;-69
2023/11/06 10:25:29;;;;;;;4.78;1.33;;;;;;;22.05;57.54;100207.31;5024793;28;20453;-70
2023/11/06 10:27:56;;;;;;;2.35;1.00;;;;;;;22.06;55.94;100203.81;5026023;28;20018;-70
2023/11/06 10:30:22;;;;;;;3.55;1.20;;;;;;;22.10;53.93;100191.50;5008012;28;20041;-70
2023/11/06 10:32:47;;;;;;;4.13;1.13;;;;;;;22.27;57.03;100202.63;4993281;28;20021;-70
2023/11/06 10:35:14;;;;;;;5.15;1.27;;;;;;;22.34;54.71;100205.16;5015820;28;20057;-71
2023/11/06 10:37:44;;;;;;;2.90;1.20;;;;;;;22.16;57.05;100201.91;5026158;28;20488;-70
2023/11/06 10:40:16;;;;;;;3.45;1.27;;;;;;;22.38;58.25;100196.34;5026769;28;20052;-73
2023/11/06 10:42:43;;;;;;;4.72;1.38;;;;;;;22.40;55.12;100187.53;5022780;28;20045;-71
2023/11/06 10:45:13;;;;;;;3.30;1.10;;;;;;;22.29;55.31;100174.53;5024204;28;20743;-71
2023/11/06 10:47:46;;;;;;;3.85;1.40;;;;;;;22.38;57.29;100186.69;5024818;28;20041;-71
2023/11/06 10:50:19;;;;;;;3.70;1.10;;;;;;;22.56;57.40;100198.66;5023541;28;20127;-69
2023/11/06 10:52:50;;;;;;;3.40;1.23;;;;;;;22.38;55.13;100180.56;5043467;28;20028;-69
2023/11/06 10:55:16;;;;;;;4.03;1.20;;;;;;;22.32;55.47;100199.91;5049786;28;20110;-69
2023/11/06 10:57:43;;;;;;;2.88;1.30;;;;;;;22.44;54.59;100189.22;5048201;28;20382;-74
2023/11/06 11:00:11;;;;;;;6.07;1.20;;;;;;;22.43;53.81;100182.22;5049858;28;20049;-69
2023/11/06 11:02:45;;;;;;;3.15;1.40;;;;;;;22.63;54.60;100173.13;5030638;28;20037;-69
2023/11/06 11:05:12;;;;;;;6.22;1.52;;;;;;;22.50;54.26;100175.09;5049486;28;20364;-69
2023/11/06 11:07:42;;;;;;;7.18;1.95;;;;;;;22.78;53.76;100188.63;5048444;28;20037;-69
2023/11/06 11:10:11;;;;;;;6.60;1.17;;;;;;;22.69;49.55;100151.09;5049962;28;20048;-71
2023/11/06 11:12:38;;;;;;;6.10;1.45;;;;;;;23.07;49.40;100181.94;5049802;28;20035;-68
2023/11/06 11:15:05;;;;;;;4.78;1.60;;;;;;;22.91;50.14;100162.09;5049681;28;20556;-72
2023/11/06 11:17:31;;;;;;;3.80;1.15;;;;;;;22.67;49.88;100098.50;5050252;28;20332;-68
2023/11/06 11:19:57;;;;;;;5.70;1.23;;;;;;;23.17;47.18;100169.50;5053629;28;20021;-68
2023/11/06 11:22:24;;;;;;;4.50;1.20;;;;;;;23.24;46.75;100175.50;5052337;28;20451;-69
2023/11/06 11:24:50;;;;;;;3.67;1.13;;;;;;;23.29;47.26;100173.69;5053842;28;20025;-70